LGKV/KVA METAR and TAF weather

Enter ICAO airport designator
Station Type Date Time Source
LGKV METAR 2019/08/24 20:20 UTC NOAA

LGKV 242020Z 06006KT CAVOK 27/19 Q1016


Station Type Date Time Source
LGKV Decoded METAR 2019/08/24 20:20 UTC NOAA

Station name not available
Aug 24, 2019 - 04:20 PM EDT / 2019.08.24 2020 UTC
Wind: from the ENE (060 degrees) at 7 MPH (6 KT):0
Visibility: greater than 7 mile(s):0
Temperature: 80 F (27 C)
Dew Point: 66 F (19 C)
Relative Humidity: 61%
Pressure (altimeter): 30.00 in. Hg (1016 hPa)
ob: LGKV 242020Z 06006KT CAVOK 27/19 Q1016
cycle: 20

Station Type Date Time Source
LGKV TAF 2019/08/24 18:12 UTC NOAA

TAF LGKV 241700Z 2418/2518 06015KT CAVOK

Example: see airport list